sensor_id;sensor_type;location;lat;lon;timestamp;P1;durP1;ratioP1;P2;durP2;ratioP2
77022;SDS011;65952;51.440;-2.054;2023-04-03T00:01:03;9.07;;;3.60;;
77022;SDS011;65952;51.440;-2.054;2023-04-03T00:03:29;8.10;;;3.53;;
77022;SDS011;65952;51.440;-2.054;2023-04-03T00:05:54;10.25;;;3.80;;
77022;SDS011;65952;51.440;-2.054;2023-04-03T00:08:20;7.18;;;3.40;;
77022;SDS011;65952;51.440;-2.054;2023-04-03T00:10:46;7.20;;;3.58;;
77022;SDS011;65952;51.440;-2.054;2023-04-03T00:13:11;8.65;;;3.70;;
77022;SDS011;65952;51.440;-2.054;2023-04-03T00:15:37;8.65;;;3.70;;
77022;SDS011;65952;51.440;-2.054;2023-04-03T00:18:04;6.65;;;3.28;;
77022;SDS011;65952;51.440;-2.054;2023-04-03T00:20:30;6.90;;;3.60;;
77022;SDS011;65952;51.440;-2.054;2023-04-03T00:22:55;9.27;;;3.42;;
77022;SDS011;65952;51.440;-2.054;2023-04-03T00:25:21;6.85;;;3.83;;
77022;SDS011;65952;51.440;-2.054;2023-04-03T00:27:47;6.68;;;3.33;;
77022;SDS011;65952;51.440;-2.054;2023-04-03T00:30:13;9.77;;;3.83;;
77022;SDS011;65952;51.440;-2.054;2023-04-03T00:32:41;6.75;;;3.55;;
77022;SDS011;65952;51.440;-2.054;2023-04-03T00:35:06;7.68;;;3.80;;
77022;SDS011;65952;51.440;-2.054;2023-04-03T00:37:32;9.15;;;4.13;;
77022;SDS011;65952;51.440;-2.054;2023-04-03T00:39:58;11.02;;;3.63;;
77022;SDS011;65952;51.440;-2.054;2023-04-03T00:42:23;8.60;;;3.63;;
77022;SDS011;65952;51.440;-2.054;2023-04-03T00:47:17;8.48;;;3.38;;
77022;SDS011;65952;51.440;-2.054;2023-04-03T00:49:43;8.52;;;3.50;;
77022;SDS011;65952;51.440;-2.054;2023-04-03T00:52:11;7.93;;;3.28;;
77022;SDS011;65952;51.440;-2.054;2023-04-03T00:54:41;8.88;;;3.33;;
77022;SDS011;65952;51.440;-2.054;2023-04-03T00:57:08;6.05;;;3.05;;
77022;SDS011;65952;51.440;-2.054;2023-04-03T00:59:37;6.72;;;3.33;;
77022;SDS011;65952;51.440;-2.054;2023-04-03T01:02:06;8.52;;;3.65;;
77022;SDS011;65952;51.440;-2.054;2023-04-03T01:07:04;6.88;;;3.42;;
77022;SDS011;65952;51.440;-2.054;2023-04-03T01:09:31;10.55;;;3.20;;
77022;SDS011;65952;51.440;-2.054;2023-04-03T01:14:41;7.28;;;2.88;;
77022;SDS011;65952;51.440;-2.054;2023-04-03T01:25:35;8.50;;;3.45;;
77022;SDS011;65952;51.440;-2.054;2023-04-03T01:28:05;6.47;;;3.08;;
77022;SDS011;65952;51.440;-2.054;2023-04-03T01:30:43;5.07;;;2.80;;
77022;SDS011;65952;51.440;-2.054;2023-04-03T01:33:13;7.55;;;2.80;;
77022;SDS011;65952;51.440;-2.054;2023-04-03T01:35:39;5.65;;;3.08;;
77022;SDS011;65952;51.440;-2.054;2023-04-03T01:38:05;8.07;;;3.30;;
77022;SDS011;65952;51.440;-2.054;2023-04-03T01:40:31;7.80;;;3.08;;
77022;SDS011;65952;51.440;-2.054;2023-04-03T01:42:56;8.80;;;2.75;;
77022;SDS011;65952;51.440;-2.054;2023-04-03T01:45:22;6.35;;;3.05;;
77022;SDS011;65952;51.440;-2.054;2023-04-03T01:47:47;5.95;;;2.70;;
77022;SDS011;65952;51.440;-2.054;2023-04-03T01:50:12;7.43;;;2.90;;
77022;SDS011;65952;51.440;-2.054;2023-04-03T01:52:38;9.95;;;3.17;;
77022;SDS011;65952;51.440;-2.054;2023-04-03T01:55:03;5.65;;;2.95;;
77022;SDS011;65952;51.440;-2.054;2023-04-03T01:57:29;7.32;;;3.65;;
77022;SDS011;65952;51.440;-2.054;2023-04-03T01:59:54;9.20;;;2.90;;
77022;SDS011;65952;51.440;-2.054;2023-04-03T02:02:19;8.45;;;3.10;;
77022;SDS011;65952;51.440;-2.054;2023-04-03T02:04:45;8.32;;;2.88;;
77022;SDS011;65952;51.440;-2.054;2023-04-03T02:07:11;9.00;;;3.38;;
77022;SDS011;65952;51.440;-2.054;2023-04-03T02:09:36;6.88;;;2.83;;
77022;SDS011;65952;51.440;-2.054;2023-04-03T02:12:01;7.85;;;3.08;;
77022;SDS011;65952;51.440;-2.054;2023-04-03T02:14:27;6.05;;;2.83;;
77022;SDS011;65952;51.440;-2.054;2023-04-03T02:16:53;8.13;;;2.90;;
77022;SDS011;65952;51.440;-2.054;2023-04-03T02:19:19;5.95;;;3.00;;
77022;SDS011;65952;51.440;-2.054;2023-04-03T02:21:44;7.25;;;3.03;;
77022;SDS011;65952;51.440;-2.054;2023-04-03T02:24:09;10.15;;;2.72;;
77022;SDS011;65952;51.440;-2.054;2023-04-03T02:26:35;4.95;;;2.88;;
77022;SDS011;65952;51.440;-2.054;2023-04-03T02:29:00;11.68;;;3.40;;
77022;SDS011;65952;51.440;-2.054;2023-04-03T02:31:25;6.72;;;3.10;;
77022;SDS011;65952;51.440;-2.054;2023-04-03T02:33:51;6.07;;;3.20;;
77022;SDS011;65952;51.440;-2.054;2023-04-03T02:36:17;8.07;;;3.90;;
77022;SDS011;65952;51.440;-2.054;2023-04-03T02:38:42;8.02;;;3.95;;
77022;SDS011;65952;51.440;-2.054;2023-04-03T02:41:09;10.20;;;3.65;;
77022;SDS011;65952;51.440;-2.054;2023-04-03T02:43:36;7.85;;;3.80;;
77022;SDS011;65952;51.440;-2.054;2023-04-03T02:46:01;8.30;;;3.72;;
77022;SDS011;65952;51.440;-2.054;2023-04-03T02:48:27;8.05;;;4.00;;
77022;SDS011;65952;51.440;-2.054;2023-04-03T02:50:53;12.50;;;4.65;;
77022;SDS011;65952;51.440;-2.054;2023-04-03T02:53:19;8.93;;;3.97;;
77022;SDS011;65952;51.440;-2.054;2023-04-03T02:55:44;8.98;;;3.90;;
77022;SDS011;65952;51.440;-2.054;2023-04-03T02:58:10;8.90;;;4.00;;
77022;SDS011;65952;51.440;-2.054;2023-04-03T03:00:36;11.57;;;4.47;;
77022;SDS011;65952;51.440;-2.054;2023-04-03T03:03:02;11.55;;;4.75;;
77022;SDS011;65952;51.440;-2.054;2023-04-03T03:05:28;8.70;;;4.43;;
77022;SDS011;65952;51.440;-2.054;2023-04-03T03:07:53;7.00;;;4.07;;
77022;SDS011;65952;51.440;-2.054;2023-04-03T03:10:19;7.38;;;4.05;;
77022;SDS011;65952;51.440;-2.054;2023-04-03T03:12:45;11.18;;;4.53;;
77022;SDS011;65952;51.440;-2.054;2023-04-03T03:15:10;8.65;;;4.13;;
77022;SDS011;65952;51.440;-2.054;2023-04-03T03:17:36;8.55;;;4.78;;
77022;SDS011;65952;51.440;-2.054;2023-04-03T03:20:03;10.23;;;4.40;;
77022;SDS011;65952;51.440;-2.054;2023-04-03T03:22:30;10.40;;;4.50;;
77022;SDS011;65952;51.440;-2.054;2023-04-03T03:24:55;8.45;;;4.22;;
77022;SDS011;65952;51.440;-2.054;2023-04-03T03:27:20;13.48;;;4.75;;
77022;SDS011;65952;51.440;-2.054;2023-04-03T03:29:46;9.73;;;4.90;;
77022;SDS011;65952;51.440;-2.054;2023-04-03T03:32:12;11.45;;;4.60;;
77022;SDS011;65952;51.440;-2.054;2023-04-03T03:34:37;10.20;;;4.97;;
77022;SDS011;65952;51.440;-2.054;2023-04-03T03:37:03;8.77;;;4.68;;
77022;SDS011;65952;51.440;-2.054;2023-04-03T03:39:28;9.95;;;4.78;;
77022;SDS011;65952;51.440;-2.054;2023-04-03T03:41:53;9.52;;;4.47;;
77022;SDS011;65952;51.440;-2.054;2023-04-03T03:44:19;10.82;;;4.72;;
77022;SDS011;65952;51.440;-2.054;2023-04-03T03:46:45;15.13;;;5.50;;
77022;SDS011;65952;51.440;-2.054;2023-04-03T03:49:10;10.57;;;4.15;;
77022;SDS011;65952;51.440;-2.054;2023-04-03T03:51:36;10.10;;;4.60;;
77022;SDS011;65952;51.440;-2.054;2023-04-03T03:54:03;11.95;;;4.07;;
77022;SDS011;65952;51.440;-2.054;2023-04-03T03:56:28;8.73;;;4.30;;
77022;SDS011;65952;51.440;-2.054;2023-04-03T03:58:54;12.55;;;4.72;;
77022;SDS011;65952;51.440;-2.054;2023-04-03T04:01:21;8.43;;;4.50;;
77022;SDS011;65952;51.440;-2.054;2023-04-03T04:03:47;9.65;;;3.67;;
77022;SDS011;65952;51.440;-2.054;2023-04-03T04:06:12;8.80;;;4.03;;
77022;SDS011;65952;51.440;-2.054;2023-04-03T04:08:38;8.82;;;4.03;;
77022;SDS011;65952;51.440;-2.054;2023-04-03T04:11:04;8.02;;;3.55;;
77022;SDS011;65952;51.440;-2.054;2023-04-03T04:13:29;8.90;;;3.80;;
77022;SDS011;65952;51.440;-2.054;2023-04-03T04:15:55;7.85;;;3.70;;
77022;SDS011;65952;51.440;-2.054;2023-04-03T04:18:20;7.60;;;3.97;;
77022;SDS011;65952;51.440;-2.054;2023-04-03T04:20:46;10.25;;;4.00;;
77022;SDS011;65952;51.440;-2.054;2023-04-03T04:23:11;8.77;;;3.67;;
77022;SDS011;65952;51.440;-2.054;2023-04-03T04:25:37;10.48;;;4.00;;
77022;SDS011;65952;51.440;-2.054;2023-04-03T04:28:02;9.68;;;4.70;;
77022;SDS011;65952;51.440;-2.054;2023-04-03T04:30:28;13.68;;;4.00;;
77022;SDS011;65952;51.440;-2.054;2023-04-03T04:32:53;7.32;;;3.70;;
77022;SDS011;65952;51.440;-2.054;2023-04-03T04:35:18;8.95;;;4.47;;
77022;SDS011;65952;51.440;-2.054;2023-04-03T04:37:44;12.48;;;4.60;;
77022;SDS011;65952;51.440;-2.054;2023-04-03T04:40:09;8.48;;;3.70;;
77022;SDS011;65952;51.440;-2.054;2023-04-03T04:42:35;8.63;;;4.07;;
77022;SDS011;65952;51.440;-2.054;2023-04-03T04:45:00;8.60;;;3.95;;
77022;SDS011;65952;51.440;-2.054;2023-04-03T04:47:27;10.20;;;5.03;;
77022;SDS011;65952;51.440;-2.054;2023-04-03T04:49:53;8.63;;;3.97;;
77022;SDS011;65952;51.440;-2.054;2023-04-03T04:52:19;12.70;;;4.70;;
77022;SDS011;65952;51.440;-2.054;2023-04-03T04:54:44;8.00;;;4.05;;
77022;SDS011;65952;51.440;-2.054;2023-04-03T04:57:09;9.68;;;3.53;;
77022;SDS011;65952;51.440;-2.054;2023-04-03T04:59:35;7.50;;;3.72;;
77022;SDS011;65952;51.440;-2.054;2023-04-03T05:02:01;8.75;;;3.80;;
77022;SDS011;65952;51.440;-2.054;2023-04-03T05:04:26;10.82;;;3.80;;
77022;SDS011;65952;51.440;-2.054;2023-04-03T05:06:52;10.10;;;3.60;;
77022;SDS011;65952;51.440;-2.054;2023-04-03T05:09:17;8.20;;;3.80;;
77022;SDS011;65952;51.440;-2.054;2023-04-03T05:11:44;11.70;;;3.63;;
77022;SDS011;65952;51.440;-2.054;2023-04-03T05:14:10;7.38;;;3.33;;
77022;SDS011;65952;51.440;-2.054;2023-04-03T05:16:35;6.95;;;3.30;;
77022;SDS011;65952;51.440;-2.054;2023-04-03T05:19:01;10.38;;;3.65;;
77022;SDS011;65952;51.440;-2.054;2023-04-03T05:21:26;9.50;;;4.35;;
77022;SDS011;65952;51.440;-2.054;2023-04-03T05:23:56;8.55;;;3.60;;
77022;SDS011;65952;51.440;-2.054;2023-04-03T05:26:22;10.15;;;3.55;;
77022;SDS011;65952;51.440;-2.054;2023-04-03T05:28:47;7.30;;;3.53;;
77022;SDS011;65952;51.440;-2.054;2023-04-03T05:31:12;8.20;;;3.15;;
77022;SDS011;65952;51.440;-2.054;2023-04-03T05:33:38;7.85;;;3.20;;
77022;SDS011;65952;51.440;-2.054;2023-04-03T05:36:04;7.35;;;3.05;;
77022;SDS011;65952;51.440;-2.054;2023-04-03T05:38:30;9.55;;;3.35;;
77022;SDS011;65952;51.440;-2.054;2023-04-03T05:40:56;7.53;;;3.17;;
77022;SDS011;65952;51.440;-2.054;2023-04-03T05:43:22;8.30;;;3.20;;
77022;SDS011;65952;51.440;-2.054;2023-04-03T05:45:47;10.07;;;3.15;;
77022;SDS011;65952;51.440;-2.054;2023-04-03T05:48:13;7.53;;;3.42;;
77022;SDS011;65952;51.440;-2.054;2023-04-03T05:50:38;8.70;;;3.13;;
77022;SDS011;65952;51.440;-2.054;2023-04-03T05:53:06;6.55;;;3.92;;
77022;SDS011;65952;51.440;-2.054;2023-04-03T05:55:39;7.72;;;3.15;;
77022;SDS011;65952;51.440;-2.054;2023-04-03T05:58:04;7.25;;;3.85;;
77022;SDS011;65952;51.440;-2.054;2023-04-03T06:00:30;7.75;;;3.30;;
77022;SDS011;65952;51.440;-2.054;2023-04-03T06:02:56;8.23;;;3.10;;
77022;SDS011;65952;51.440;-2.054;2023-04-03T06:05:21;9.30;;;3.65;;
77022;SDS011;65952;51.440;-2.054;2023-04-03T06:07:47;8.27;;;3.40;;
77022;SDS011;65952;51.440;-2.054;2023-04-03T06:10:14;10.65;;;3.38;;
77022;SDS011;65952;51.440;-2.054;2023-04-03T06:12:39;9.50;;;3.55;;
77022;SDS011;65952;51.440;-2.054;2023-04-03T06:15:05;8.65;;;4.03;;
77022;SDS011;65952;51.440;-2.054;2023-04-03T06:17:33;7.97;;;3.28;;
77022;SDS011;65952;51.440;-2.054;2023-04-03T06:19:58;7.47;;;3.05;;
77022;SDS011;65952;51.440;-2.054;2023-04-03T06:22:23;10.43;;;3.45;;
77022;SDS011;65952;51.440;-2.054;2023-04-03T06:24:50;10.48;;;3.72;;
77022;SDS011;65952;51.440;-2.054;2023-04-03T06:27:16;7.38;;;3.72;;
77022;SDS011;65952;51.440;-2.054;2023-04-03T06:29:41;11.38;;;4.63;;
77022;SDS011;65952;51.440;-2.054;2023-04-03T06:32:07;11.07;;;4.30;;
77022;SDS011;65952;51.440;-2.054;2023-04-03T06:34:32;13.18;;;5.03;;
77022;SDS011;65952;51.440;-2.054;2023-04-03T06:36:58;11.48;;;5.30;;
77022;SDS011;65952;51.440;-2.054;2023-04-03T06:39:23;11.27;;;4.95;;
77022;SDS011;65952;51.440;-2.054;2023-04-03T06:41:49;9.50;;;4.90;;
77022;SDS011;65952;51.440;-2.054;2023-04-03T06:44:15;12.55;;;5.40;;
77022;SDS011;65952;51.440;-2.054;2023-04-03T06:46:41;13.40;;;5.63;;
77022;SDS011;65952;51.440;-2.054;2023-04-03T06:49:07;10.38;;;5.13;;
77022;SDS011;65952;51.440;-2.054;2023-04-03T06:51:32;12.45;;;4.93;;
77022;SDS011;65952;51.440;-2.054;2023-04-03T06:53:59;8.43;;;4.80;;
77022;SDS011;65952;51.440;-2.054;2023-04-03T06:56:25;11.65;;;5.45;;
77022;SDS011;65952;51.440;-2.054;2023-04-03T06:58:52;13.85;;;6.18;;
77022;SDS011;65952;51.440;-2.054;2023-04-03T07:01:19;15.40;;;6.60;;
77022;SDS011;65952;51.440;-2.054;2023-04-03T07:03:45;12.27;;;5.97;;
77022;SDS011;65952;51.440;-2.054;2023-04-03T07:06:13;14.98;;;5.93;;
77022;SDS011;65952;51.440;-2.054;2023-04-03T07:08:40;20.40;;;6.43;;
77022;SDS011;65952;51.440;-2.054;2023-04-03T07:11:07;12.43;;;5.22;;
77022;SDS011;65952;51.440;-2.054;2023-04-03T07:13:33;13.75;;;6.00;;
77022;SDS011;65952;51.440;-2.054;2023-04-03T07:15:58;17.08;;;5.65;;
77022;SDS011;65952;51.440;-2.054;2023-04-03T07:18:24;11.65;;;5.28;;
77022;SDS011;65952;51.440;-2.054;2023-04-03T07:20:50;12.50;;;5.90;;
77022;SDS011;65952;51.440;-2.054;2023-04-03T07:23:16;11.60;;;5.30;;
77022;SDS011;65952;51.440;-2.054;2023-04-03T07:25:42;13.50;;;4.63;;
77022;SDS011;65952;51.440;-2.054;2023-04-03T07:28:09;11.38;;;5.35;;
77022;SDS011;65952;51.440;-2.054;2023-04-03T07:30:34;14.35;;;6.03;;
77022;SDS011;65952;51.440;-2.054;2023-04-03T07:33:07;17.40;;;7.18;;
77022;SDS011;65952;51.440;-2.054;2023-04-03T07:35:32;12.52;;;5.40;;
77022;SDS011;65952;51.440;-2.054;2023-04-03T07:37:58;13.45;;;6.28;;
77022;SDS011;65952;51.440;-2.054;2023-04-03T07:40:23;11.10;;;5.32;;
77022;SDS011;65952;51.440;-2.054;2023-04-03T07:42:48;10.90;;;5.13;;
77022;SDS011;65952;51.440;-2.054;2023-04-03T07:45:15;10.73;;;5.05;;
77022;SDS011;65952;51.440;-2.054;2023-04-03T07:47:42;13.85;;;5.13;;
77022;SDS011;65952;51.440;-2.054;2023-04-03T07:50:08;9.77;;;4.38;;
77022;SDS011;65952;51.440;-2.054;2023-04-03T07:52:34;12.90;;;5.55;;
77022;SDS011;65952;51.440;-2.054;2023-04-03T07:54:59;8.07;;;3.60;;
77022;SDS011;65952;51.440;-2.054;2023-04-03T07:57:24;7.15;;;3.58;;
77022;SDS011;65952;51.440;-2.054;2023-04-03T07:59:50;25.63;;;4.28;;
77022;SDS011;65952;51.440;-2.054;2023-04-03T08:02:15;7.40;;;3.88;;
77022;SDS011;65952;51.440;-2.054;2023-04-03T08:04:40;6.85;;;3.00;;
77022;SDS011;65952;51.440;-2.054;2023-04-03T08:07:06;7.72;;;3.30;;
77022;SDS011;65952;51.440;-2.054;2023-04-03T08:09:31;8.20;;;3.63;;
77022;SDS011;65952;51.440;-2.054;2023-04-03T08:11:57;5.65;;;2.70;;
77022;SDS011;65952;51.440;-2.054;2023-04-03T08:14:23;6.38;;;2.88;;
77022;SDS011;65952;51.440;-2.054;2023-04-03T08:16:49;6.00;;;2.78;;
77022;SDS011;65952;51.440;-2.054;2023-04-03T08:19:14;7.85;;;3.10;;
77022;SDS011;65952;51.440;-2.054;2023-04-03T08:21:42;8.63;;;3.03;;
77022;SDS011;65952;51.440;-2.054;2023-04-03T08:24:08;9.85;;;3.00;;
77022;SDS011;65952;51.440;-2.054;2023-04-03T08:26:34;7.57;;;3.33;;
77022;SDS011;65952;51.440;-2.054;2023-04-03T08:28:59;7.68;;;2.95;;
77022;SDS011;65952;51.440;-2.054;2023-04-03T08:31:25;8.00;;;2.50;;
77022;SDS011;65952;51.440;-2.054;2023-04-03T08:33:50;6.97;;;2.60;;
77022;SDS011;65952;51.440;-2.054;2023-04-03T08:36:17;7.97;;;2.70;;
77022;SDS011;65952;51.440;-2.054;2023-04-03T08:38:48;8.55;;;3.10;;
77022;SDS011;65952;51.440;-2.054;2023-04-03T08:41:16;7.82;;;3.28;;
77022;SDS011;65952;51.440;-2.054;2023-04-03T08:46:21;6.68;;;2.50;;
77022;SDS011;65952;51.440;-2.054;2023-04-03T08:48:49;8.77;;;2.70;;
77022;SDS011;65952;51.440;-2.054;2023-04-03T08:51:17;7.40;;;2.30;;
77022;SDS011;65952;51.440;-2.054;2023-04-03T08:54:20;8.10;;;2.47;;
77022;SDS011;65952;51.440;-2.054;2023-04-03T08:56:44;7.05;;;2.55;;
77022;SDS011;65952;51.440;-2.054;2023-04-03T08:59:11;7.50;;;2.38;;
77022;SDS011;65952;51.440;-2.054;2023-04-03T09:01:51;6.25;;;2.88;;
77022;SDS011;65952;51.440;-2.054;2023-04-03T09:04:18;6.68;;;2.50;;
77022;SDS011;65952;51.440;-2.054;2023-04-03T09:06:44;8.38;;;2.67;;
77022;SDS011;65952;51.440;-2.054;2023-04-03T09:09:35;8.35;;;2.90;;
77022;SDS011;65952;51.440;-2.054;2023-04-03T09:17:24;4.80;;;2.53;;
77022;SDS011;65952;51.440;-2.054;2023-04-03T09:22:52;6.97;;;2.85;;
77022;SDS011;65952;51.440;-2.054;2023-04-03T09:25:20;5.55;;;2.70;;
77022;SDS011;65952;51.440;-2.054;2023-04-03T09:27:47;6.05;;;3.35;;
77022;SDS011;65952;51.440;-2.054;2023-04-03T09:30:14;6.57;;;3.08;;
77022;SDS011;65952;51.440;-2.054;2023-04-03T09:32:41;5.63;;;3.13;;
77022;SDS011;65952;51.440;-2.054;2023-04-03T09:37:44;8.88;;;3.95;;
77022;SDS011;65952;51.440;-2.054;2023-04-03T09:42:51;8.05;;;3.80;;
77022;SDS011;65952;51.440;-2.054;2023-04-03T09:45:22;7.82;;;3.42;;
77022;SDS011;65952;51.440;-2.054;2023-04-03T09:47:54;7.72;;;3.42;;
77022;SDS011;65952;51.440;-2.054;2023-04-03T09:50:38;10.60;;;3.28;;
77022;SDS011;65952;51.440;-2.054;2023-04-03T09:55:53;8.40;;;4.45;;
77022;SDS011;65952;51.440;-2.054;2023-04-03T09:58:26;6.63;;;3.83;;
77022;SDS011;65952;51.440;-2.054;2023-04-03T10:01:01;9.48;;;4.05;;
77022;SDS011;65952;51.440;-2.054;2023-04-03T10:03:29;9.55;;;4.15;;
77022;SDS011;65952;51.440;-2.054;2023-04-03T10:05:57;7.63;;;3.67;;
77022;SDS011;65952;51.440;-2.054;2023-04-03T10:08:28;10.95;;;3.92;;
77022;SDS011;65952;51.440;-2.054;2023-04-03T10:11:14;7.70;;;3.65;;
77022;SDS011;65952;51.440;-2.054;2023-04-03T10:13:54;8.35;;;3.72;;
77022;SDS011;65952;51.440;-2.054;2023-04-03T10:16:31;6.03;;;4.10;;
77022;SDS011;65952;51.440;-2.054;2023-04-03T10:34:35;7.82;;;3.60;;
77022;SDS011;65952;51.440;-2.054;2023-04-03T10:42:39;9.45;;;4.25;;
77022;SDS011;65952;51.440;-2.054;2023-04-03T10:53:39;7.28;;;4.07;;
77022;SDS011;65952;51.440;-2.054;2023-04-03T10:59:28;7.18;;;4.00;;
77022;SDS011;65952;51.440;-2.054;2023-04-03T11:02:04;8.05;;;4.07;;
77022;SDS011;65952;51.440;-2.054;2023-04-03T11:04:37;9.48;;;4.20;;
77022;SDS011;65952;51.440;-2.054;2023-04-03T11:09:46;8.93;;;4.93;;
77022;SDS011;65952;51.440;-2.054;2023-04-03T11:12:21;11.15;;;4.53;;
77022;SDS011;65952;51.440;-2.054;2023-04-03T11:14:51;9.32;;;4.68;;
77022;SDS011;65952;51.440;-2.054;2023-04-03T11:22:43;8.27;;;4.60;;
77022;SDS011;65952;51.440;-2.054;2023-04-03T11:36:27;9.38;;;4.90;;
77022;SDS011;65952;51.440;-2.054;2023-04-03T11:38:49;9.43;;;4.50;;
77022;SDS011;65952;51.440;-2.054;2023-04-03T11:41:23;9.02;;;4.70;;
77022;SDS011;65952;51.440;-2.054;2023-04-03T11:46:22;7.53;;;4.35;;
77022;SDS011;65952;51.440;-2.054;2023-04-03T11:52:53;7.95;;;4.60;;
77022;SDS011;65952;51.440;-2.054;2023-04-03T12:05:52;8.50;;;4.47;;
77022;SDS011;65952;51.440;-2.054;2023-04-03T12:13:40;7.70;;;4.15;;
77022;SDS011;65952;51.440;-2.054;2023-04-03T12:26:46;10.18;;;4.35;;
77022;SDS011;65952;51.440;-2.054;2023-04-03T12:46:25;7.10;;;3.97;;
77022;SDS011;65952;51.440;-2.054;2023-04-03T12:49:00;10.88;;;4.43;;
77022;SDS011;65952;51.440;-2.054;2023-04-03T12:54:16;7.70;;;4.13;;
77022;SDS011;65952;51.440;-2.054;2023-04-03T12:56:47;9.02;;;4.50;;
77022;SDS011;65952;51.440;-2.054;2023-04-03T12:59:22;11.82;;;4.93;;
77022;SDS011;65952;51.440;-2.054;2023-04-03T13:01:56;8.98;;;4.40;;
77022;SDS011;65952;51.440;-2.054;2023-04-03T13:04:25;8.43;;;5.22;;
77022;SDS011;65952;51.440;-2.054;2023-04-03T13:06:52;6.97;;;4.03;;
77022;SDS011;65952;51.440;-2.054;2023-04-03T13:09:19;8.00;;;4.65;;
77022;SDS011;65952;51.440;-2.054;2023-04-03T13:12:12;9.45;;;4.10;;
77022;SDS011;65952;51.440;-2.054;2023-04-03T13:14:40;8.45;;;4.80;;
77022;SDS011;65952;51.440;-2.054;2023-04-03T13:17:09;7.43;;;4.68;;
77022;SDS011;65952;51.440;-2.054;2023-04-03T13:19:39;8.95;;;4.78;;
77022;SDS011;65952;51.440;-2.054;2023-04-03T13:22:06;9.13;;;4.45;;
77022;SDS011;65952;51.440;-2.054;2023-04-03T13:24:41;9.25;;;5.55;;
77022;SDS011;65952;51.440;-2.054;2023-04-03T13:27:10;11.82;;;5.65;;
77022;SDS011;65952;51.440;-2.054;2023-04-03T13:29:37;10.65;;;5.50;;
77022;SDS011;65952;51.440;-2.054;2023-04-03T13:32:04;10.27;;;5.72;;
77022;SDS011;65952;51.440;-2.054;2023-04-03T13:34:41;11.95;;;5.30;;
77022;SDS011;65952;51.440;-2.054;2023-04-03T13:37:18;8.90;;;5.40;;
77022;SDS011;65952;51.440;-2.054;2023-04-03T13:39:55;9.45;;;5.50;;
77022;SDS011;65952;51.440;-2.054;2023-04-03T13:42:40;9.85;;;5.45;;
77022;SDS011;65952;51.440;-2.054;2023-04-03T13:47:39;10.88;;;6.10;;
77022;SDS011;65952;51.440;-2.054;2023-04-03T13:55:28;9.23;;;4.80;;
77022;SDS011;65952;51.440;-2.054;2023-04-03T14:02:55;10.00;;;5.85;;
77022;SDS011;65952;51.440;-2.054;2023-04-03T14:05:22;7.40;;;4.90;;
77022;SDS011;65952;51.440;-2.054;2023-04-03T14:07:49;7.13;;;4.32;;
77022;SDS011;65952;51.440;-2.054;2023-04-03T14:10:14;9.10;;;4.70;;
77022;SDS011;65952;51.440;-2.054;2023-04-03T14:12:40;10.15;;;5.28;;
77022;SDS011;65952;51.440;-2.054;2023-04-03T14:15:17;11.93;;;5.25;;
77022;SDS011;65952;51.440;-2.054;2023-04-03T14:17:45;9.38;;;5.47;;
77022;SDS011;65952;51.440;-2.054;2023-04-03T14:20:18;10.07;;;5.70;;
77022;SDS011;65952;51.440;-2.054;2023-04-03T14:22:46;10.18;;;5.63;;
77022;SDS011;65952;51.440;-2.054;2023-04-03T14:25:12;12.15;;;6.68;;
77022;SDS011;65952;51.440;-2.054;2023-04-03T14:27:42;11.68;;;5.82;;
77022;SDS011;65952;51.440;-2.054;2023-04-03T14:30:17;11.32;;;5.47;;
77022;SDS011;65952;51.440;-2.054;2023-04-03T14:32:45;11.02;;;5.32;;
77022;SDS011;65952;51.440;-2.054;2023-04-03T14:35:12;10.07;;;4.88;;
77022;SDS011;65952;51.440;-2.054;2023-04-03T14:37:38;11.00;;;5.40;;
77022;SDS011;65952;51.440;-2.054;2023-04-03T14:40:04;9.90;;;5.65;;
77022;SDS011;65952;51.440;-2.054;2023-04-03T14:42:31;10.23;;;4.75;;
77022;SDS011;65952;51.440;-2.054;2023-04-03T14:44:59;11.30;;;5.03;;
77022;SDS011;65952;51.440;-2.054;2023-04-03T14:47:26;7.35;;;4.70;;
77022;SDS011;65952;51.440;-2.054;2023-04-03T14:49:53;8.60;;;4.35;;
77022;SDS011;65952;51.440;-2.054;2023-04-03T14:52:30;11.63;;;5.63;;
77022;SDS011;65952;51.440;-2.054;2023-04-03T14:54:59;9.63;;;5.40;;
77022;SDS011;65952;51.440;-2.054;2023-04-03T14:57:26;11.15;;;5.88;;
77022;SDS011;65952;51.440;-2.054;2023-04-03T14:59:53;8.23;;;5.45;;
77022;SDS011;65952;51.440;-2.054;2023-04-03T15:02:32;12.18;;;5.38;;
77022;SDS011;65952;51.440;-2.054;2023-04-03T15:05:03;13.70;;;4.80;;
77022;SDS011;65952;51.440;-2.054;2023-04-03T15:07:32;13.60;;;6.40;;
77022;SDS011;65952;51.440;-2.054;2023-04-03T15:10:46;7.35;;;4.47;;
77022;SDS011;65952;51.440;-2.054;2023-04-03T15:12:50;10.70;;;5.95;;
77022;SDS011;65952;51.440;-2.054;2023-04-03T15:15:17;8.50;;;5.18;;
77022;SDS011;65952;51.440;-2.054;2023-04-03T15:17:45;13.10;;;6.18;;
77022;SDS011;65952;51.440;-2.054;2023-04-03T15:20:19;11.65;;;6.22;;
77022;SDS011;65952;51.440;-2.054;2023-04-03T15:22:46;8.95;;;6.10;;
77022;SDS011;65952;51.440;-2.054;2023-04-03T15:25:11;8.50;;;5.47;;
77022;SDS011;65952;51.440;-2.054;2023-04-03T15:27:37;8.95;;;4.85;;
77022;SDS011;65952;51.440;-2.054;2023-04-03T15:30:07;11.43;;;5.22;;
77022;SDS011;65952;51.440;-2.054;2023-04-03T15:32:36;8.27;;;5.22;;
77022;SDS011;65952;51.440;-2.054;2023-04-03T15:35:01;8.35;;;4.85;;
77022;SDS011;65952;51.440;-2.054;2023-04-03T15:37:27;9.88;;;4.68;;
77022;SDS011;65952;51.440;-2.054;2023-04-03T15:39:52;7.82;;;4.40;;
77022;SDS011;65952;51.440;-2.054;2023-04-03T15:42:18;10.15;;;4.95;;
77022;SDS011;65952;51.440;-2.054;2023-04-03T15:44:43;8.52;;;4.85;;
77022;SDS011;65952;51.440;-2.054;2023-04-03T15:47:09;12.95;;;5.47;;
77022;SDS011;65952;51.440;-2.054;2023-04-03T15:49:35;8.85;;;5.65;;
77022;SDS011;65952;51.440;-2.054;2023-04-03T15:52:00;8.18;;;5.18;;
77022;SDS011;65952;51.440;-2.054;2023-04-03T15:54:26;7.82;;;4.38;;
77022;SDS011;65952;51.440;-2.054;2023-04-03T15:56:54;6.50;;;3.83;;
77022;SDS011;65952;51.440;-2.054;2023-04-03T15:59:20;10.57;;;5.18;;
77022;SDS011;65952;51.440;-2.054;2023-04-03T16:01:45;9.20;;;4.90;;
77022;SDS011;65952;51.440;-2.054;2023-04-03T16:04:11;11.23;;;4.85;;
77022;SDS011;65952;51.440;-2.054;2023-04-03T16:06:36;8.75;;;5.45;;
77022;SDS011;65952;51.440;-2.054;2023-04-03T16:09:03;8.73;;;5.15;;
77022;SDS011;65952;51.440;-2.054;2023-04-03T16:11:30;11.15;;;5.22;;
77022;SDS011;65952;51.440;-2.054;2023-04-03T16:13:55;8.20;;;4.70;;
77022;SDS011;65952;51.440;-2.054;2023-04-03T16:16:22;7.32;;;4.20;;
77022;SDS011;65952;51.440;-2.054;2023-04-03T16:18:49;8.93;;;4.85;;
77022;SDS011;65952;51.440;-2.054;2023-04-03T16:21:16;12.20;;;5.18;;
77022;SDS011;65952;51.440;-2.054;2023-04-03T16:23:42;9.85;;;4.78;;
77022;SDS011;65952;51.440;-2.054;2023-04-03T16:26:08;7.88;;;4.78;;
77022;SDS011;65952;51.440;-2.054;2023-04-03T16:28:34;10.32;;;4.63;;
77022;SDS011;65952;51.440;-2.054;2023-04-03T16:30:59;7.90;;;4.57;;
77022;SDS011;65952;51.440;-2.054;2023-04-03T16:33:26;6.85;;;4.25;;
77022;SDS011;65952;51.440;-2.054;2023-04-03T16:35:52;7.40;;;3.72;;
77022;SDS011;65952;51.440;-2.054;2023-04-03T16:38:17;7.88;;;4.20;;
77022;SDS011;65952;51.440;-2.054;2023-04-03T16:40:47;8.00;;;4.68;;
77022;SDS011;65952;51.440;-2.054;2023-04-03T16:43:14;6.43;;;4.55;;
77022;SDS011;65952;51.440;-2.054;2023-04-03T16:45:40;6.72;;;4.10;;
77022;SDS011;65952;51.440;-2.054;2023-04-03T16:48:05;10.15;;;4.10;;
77022;SDS011;65952;51.440;-2.054;2023-04-03T16:50:31;8.15;;;4.13;;
77022;SDS011;65952;51.440;-2.054;2023-04-03T16:52:56;8.30;;;3.53;;
77022;SDS011;65952;51.440;-2.054;2023-04-03T16:55:22;8.65;;;4.40;;
77022;SDS011;65952;51.440;-2.054;2023-04-03T16:57:47;6.63;;;4.50;;
77022;SDS011;65952;51.440;-2.054;2023-04-03T17:00:13;9.73;;;4.63;;
77022;SDS011;65952;51.440;-2.054;2023-04-03T17:02:39;7.88;;;4.20;;
77022;SDS011;65952;51.440;-2.054;2023-04-03T17:05:05;8.35;;;4.38;;